sensor_id;sensor_type;location;lat;lon;timestamp;temperature;humidity
3156;DHT22;1588;50.892;7.082;2022-12-07T00:02:49;4.90;99.90
3156;DHT22;1588;50.892;7.082;2022-12-07T00:07:51;4.90;99.90
3156;DHT22;1588;50.892;7.082;2022-12-07T00:12:54;5.00;99.90
3156;DHT22;1588;50.892;7.082;2022-12-07T00:17:57;4.90;99.90
3156;DHT22;1588;50.892;7.082;2022-12-07T00:23:00;5.00;99.90
3156;DHT22;1588;50.892;7.082;2022-12-07T00:28:03;5.00;99.90
3156;DHT22;1588;50.892;7.082;2022-12-07T00:33:06;5.00;99.90
3156;DHT22;1588;50.892;7.082;2022-12-07T00:38:18;5.00;99.90
3156;DHT22;1588;50.892;7.082;2022-12-07T00:43:29;5.00;99.90
3156;DHT22;1588;50.892;7.082;2022-12-07T00:48:33;4.90;99.90
3156;DHT22;1588;50.892;7.082;2022-12-07T00:53:36;5.00;99.90
3156;DHT22;1588;50.892;7.082;2022-12-07T00:58:38;5.00;99.90
3156;DHT22;1588;50.892;7.082;2022-12-07T01:03:42;5.00;99.90
3156;DHT22;1588;50.892;7.082;2022-12-07T01:08:44;5.00;99.90
3156;DHT22;1588;50.892;7.082;2022-12-07T01:13:47;4.90;99.90
3156;DHT22;1588;50.892;7.082;2022-12-07T01:18:54;5.00;99.90
3156;DHT22;1588;50.892;7.082;2022-12-07T01:23:57;5.00;99.90
3156;DHT22;1588;50.892;7.082;2022-12-07T01:28:59;5.00;99.90
3156;DHT22;1588;50.892;7.082;2022-12-07T01:34:13;5.00;99.90
3156;DHT22;1588;50.892;7.082;2022-12-07T01:39:16;5.10;99.90
3156;DHT22;1588;50.892;7.082;2022-12-07T01:44:22;5.10;99.90
3156;DHT22;1588;50.892;7.082;2022-12-07T01:49:30;5.20;99.90
3156;DHT22;1588;50.892;7.082;2022-12-07T01:54:35;5.10;99.90
3156;DHT22;1588;50.892;7.082;2022-12-07T01:59:43;5.10;99.90
3156;DHT22;1588;50.892;7.082;2022-12-07T02:04:49;5.10;99.90
3156;DHT22;1588;50.892;7.082;2022-12-07T02:09:53;5.20;99.90
3156;DHT22;1588;50.892;7.082;2022-12-07T02:14:55;5.20;99.90
3156;DHT22;1588;50.892;7.082;2022-12-07T02:20:11;5.20;99.90
3156;DHT22;1588;50.892;7.082;2022-12-07T02:25:23;5.20;99.90
3156;DHT22;1588;50.892;7.082;2022-12-07T02:30:35;5.20;99.90
3156;DHT22;1588;50.892;7.082;2022-12-07T02:35:46;5.20;99.90
3156;DHT22;1588;50.892;7.082;2022-12-07T02:40:55;5.20;99.90
3156;DHT22;1588;50.892;7.082;2022-12-07T02:46:03;5.20;99.90
3156;DHT22;1588;50.892;7.082;2022-12-07T02:51:09;5.20;99.90
3156;DHT22;1588;50.892;7.082;2022-12-07T02:56:17;5.10;99.90
3156;DHT22;1588;50.892;7.082;2022-12-07T03:01:28;5.10;99.90
3156;DHT22;1588;50.892;7.082;2022-12-07T03:06:38;5.20;99.90
3156;DHT22;1588;50.892;7.082;2022-12-07T03:11:47;5.10;99.90
3156;DHT22;1588;50.892;7.082;2022-12-07T03:16:58;5.10;99.90
3156;DHT22;1588;50.892;7.082;2022-12-07T03:22:06;5.10;99.90
3156;DHT22;1588;50.892;7.082;2022-12-07T03:27:12;5.20;99.90
3156;DHT22;1588;50.892;7.082;2022-12-07T03:32:20;5.10;99.90
3156;DHT22;1588;50.892;7.082;2022-12-07T03:37:31;5.10;99.90
3156;DHT22;1588;50.892;7.082;2022-12-07T03:42:35;5.10;99.90
3156;DHT22;1588;50.892;7.082;2022-12-07T03:47:44;5.20;99.90
3156;DHT22;1588;50.892;7.082;2022-12-07T03:52:53;5.10;99.90
3156;DHT22;1588;50.892;7.082;2022-12-07T03:58:01;5.20;99.90
3156;DHT22;1588;50.892;7.082;2022-12-07T04:03:06;5.10;99.90
3156;DHT22;1588;50.892;7.082;2022-12-07T04:08:08;5.20;99.90
3156;DHT22;1588;50.892;7.082;2022-12-07T04:13:12;5.10;99.90
3156;DHT22;1588;50.892;7.082;2022-12-07T04:18:16;5.10;99.90
3156;DHT22;1588;50.892;7.082;2022-12-07T04:23:18;5.10;99.90
3156;DHT22;1588;50.892;7.082;2022-12-07T04:28:20;5.20;99.90
3156;DHT22;1588;50.892;7.082;2022-12-07T04:33:24;5.20;99.90
3156;DHT22;1588;50.892;7.082;2022-12-07T04:38:27;5.10;99.90
3156;DHT22;1588;50.892;7.082;2022-12-07T04:43:29;5.10;99.90
3156;DHT22;1588;50.892;7.082;2022-12-07T04:48:33;5.10;99.90
3156;DHT22;1588;50.892;7.082;2022-12-07T04:53:45;5.10;99.90
3156;DHT22;1588;50.892;7.082;2022-12-07T04:58:48;5.10;99.90
3156;DHT22;1588;50.892;7.082;2022-12-07T05:03:52;5.10;99.90
3156;DHT22;1588;50.892;7.082;2022-12-07T05:09:00;5.10;99.90
3156;DHT22;1588;50.892;7.082;2022-12-07T05:14:07;5.10;99.90
3156;DHT22;1588;50.892;7.082;2022-12-07T05:19:12;5.10;99.90
3156;DHT22;1588;50.892;7.082;2022-12-07T05:24:15;5.10;99.90
3156;DHT22;1588;50.892;7.082;2022-12-07T05:29:24;5.10;99.90
3156;DHT22;1588;50.892;7.082;2022-12-07T05:34:28;5.10;99.90
3156;DHT22;1588;50.892;7.082;2022-12-07T05:39:30;5.10;99.90
3156;DHT22;1588;50.892;7.082;2022-12-07T05:44:32;5.00;99.90
3156;DHT22;1588;50.892;7.082;2022-12-07T05:49:36;5.00;99.90
3156;DHT22;1588;50.892;7.082;2022-12-07T05:54:39;5.00;99.90
3156;DHT22;1588;50.892;7.082;2022-12-07T05:59:41;5.00;99.90
3156;DHT22;1588;50.892;7.082;2022-12-07T06:04:46;5.00;99.90
3156;DHT22;1588;50.892;7.082;2022-12-07T06:09:49;5.10;99.90
3156;DHT22;1588;50.892;7.082;2022-12-07T06:14:51;4.90;99.90
3156;DHT22;1588;50.892;7.082;2022-12-07T06:19:55;4.80;99.90
3156;DHT22;1588;50.892;7.082;2022-12-07T06:24:57;4.70;99.90
3156;DHT22;1588;50.892;7.082;2022-12-07T06:30:05;4.70;99.90
3156;DHT22;1588;50.892;7.082;2022-12-07T06:35:10;4.60;99.90
3156;DHT22;1588;50.892;7.082;2022-12-07T06:40:13;4.50;99.90
3156;DHT22;1588;50.892;7.082;2022-12-07T06:45:15;4.50;99.90
3156;DHT22;1588;50.892;7.082;2022-12-07T06:50:22;4.60;99.90
3156;DHT22;1588;50.892;7.082;2022-12-07T06:55:24;4.60;99.90
3156;DHT22;1588;50.892;7.082;2022-12-07T07:00:27;4.60;99.90
3156;DHT22;1588;50.892;7.082;2022-12-07T07:05:31;4.60;99.90
3156;DHT22;1588;50.892;7.082;2022-12-07T07:10:33;4.60;99.90
3156;DHT22;1588;50.892;7.082;2022-12-07T07:15:37;4.60;99.90
3156;DHT22;1588;50.892;7.082;2022-12-07T07:20:41;4.60;99.90
3156;DHT22;1588;50.892;7.082;2022-12-07T07:25:44;4.60;99.90
3156;DHT22;1588;50.892;7.082;2022-12-07T07:30:47;4.70;99.90
3156;DHT22;1588;50.892;7.082;2022-12-07T07:35:59;4.70;99.90
3156;DHT22;1588;50.892;7.082;2022-12-07T07:41:02;4.60;99.90
3156;DHT22;1588;50.892;7.082;2022-12-07T07:46:12;4.70;99.90
3156;DHT22;1588;50.892;7.082;2022-12-07T07:56:59;4.60;99.90
3156;DHT22;1588;50.892;7.082;2022-12-07T08:02:21;4.60;99.90
3156;DHT22;1588;50.892;7.082;2022-12-07T08:07:27;4.70;99.90
3156;DHT22;1588;50.892;7.082;2022-12-07T08:12:31;4.80;99.90
3156;DHT22;1588;50.892;7.082;2022-12-07T08:17:37;5.00;99.90
3156;DHT22;1588;50.892;7.082;2022-12-07T08:22:40;5.10;99.90
3156;DHT22;1588;50.892;7.082;2022-12-07T08:27:44;5.00;99.90
3156;DHT22;1588;50.892;7.082;2022-12-07T08:32:47;5.00;99.90
3156;DHT22;1588;50.892;7.082;2022-12-07T08:37:49;5.10;99.90
3156;DHT22;1588;50.892;7.082;2022-12-07T08:42:53;5.20;99.90
3156;DHT22;1588;50.892;7.082;2022-12-07T08:47:58;5.20;99.90
3156;DHT22;1588;50.892;7.082;2022-12-07T08:53:05;5.20;99.90
3156;DHT22;1588;50.892;7.082;2022-12-07T08:58:09;5.20;99.90
3156;DHT22;1588;50.892;7.082;2022-12-07T09:03:12;5.30;99.90
3156;DHT22;1588;50.892;7.082;2022-12-07T09:08:14;5.50;99.90
3156;DHT22;1588;50.892;7.082;2022-12-07T09:13:19;5.60;99.90
3156;DHT22;1588;50.892;7.082;2022-12-07T09:18:25;5.70;99.90
3156;DHT22;1588;50.892;7.082;2022-12-07T09:23:27;5.80;99.90
3156;DHT22;1588;50.892;7.082;2022-12-07T09:28:31;5.80;99.90
3156;DHT22;1588;50.892;7.082;2022-12-07T09:33:44;5.80;99.90
3156;DHT22;1588;50.892;7.082;2022-12-07T09:38:46;5.90;99.90
3156;DHT22;1588;50.892;7.082;2022-12-07T09:43:50;5.90;99.90
3156;DHT22;1588;50.892;7.082;2022-12-07T09:48:53;5.80;99.90
3156;DHT22;1588;50.892;7.082;2022-12-07T09:53:56;5.80;99.90
3156;DHT22;1588;50.892;7.082;2022-12-07T09:59:02;5.80;99.90
3156;DHT22;1588;50.892;7.082;2022-12-07T10:04:11;6.00;99.90
3156;DHT22;1588;50.892;7.082;2022-12-07T10:09:16;6.00;99.90
3156;DHT22;1588;50.892;7.082;2022-12-07T10:14:20;6.30;99.90
3156;DHT22;1588;50.892;7.082;2022-12-07T10:19:27;6.50;99.90
3156;DHT22;1588;50.892;7.082;2022-12-07T11:05:47;6.80;99.90
3156;DHT22;1588;50.892;7.082;2022-12-07T11:10:57;6.80;99.90
3156;DHT22;1588;50.892;7.082;2022-12-07T11:16:23;6.90;99.90
3156;DHT22;1588;50.892;7.082;2022-12-07T11:21:34;6.80;99.90
3156;DHT22;1588;50.892;7.082;2022-12-07T11:27:01;6.70;99.90
3156;DHT22;1588;50.892;7.082;2022-12-07T11:32:14;6.70;99.90
3156;DHT22;1588;50.892;7.082;2022-12-07T11:37:25;6.70;99.90
3156;DHT22;1588;50.892;7.082;2022-12-07T11:42:33;6.80;99.90
3156;DHT22;1588;50.892;7.082;2022-12-07T11:47:46;6.90;99.90
3156;DHT22;1588;50.892;7.082;2022-12-07T11:52:54;6.90;99.90
3156;DHT22;1588;50.892;7.082;2022-12-07T11:58:02;6.80;99.90
3156;DHT22;1588;50.892;7.082;2022-12-07T12:03:12;6.70;99.90
3156;DHT22;1588;50.892;7.082;2022-12-07T12:08:22;6.80;99.90
3156;DHT22;1588;50.892;7.082;2022-12-07T12:14:00;6.80;99.90
3156;DHT22;1588;50.892;7.082;2022-12-07T12:19:19;6.80;99.90
3156;DHT22;1588;50.892;7.082;2022-12-07T12:24:29;6.80;99.90
3156;DHT22;1588;50.892;7.082;2022-12-07T12:29:39;6.80;99.90
3156;DHT22;1588;50.892;7.082;2022-12-07T12:34:59;6.80;99.90
3156;DHT22;1588;50.892;7.082;2022-12-07T12:46:45;6.80;99.90
3156;DHT22;1588;50.892;7.082;2022-12-07T12:51:49;6.80;99.90
3156;DHT22;1588;50.892;7.082;2022-12-07T12:56:55;6.60;99.90
3156;DHT22;1588;50.892;7.082;2022-12-07T13:02:20;6.60;99.90
3156;DHT22;1588;50.892;7.082;2022-12-07T13:08:01;6.70;99.90
3156;DHT22;1588;50.892;7.082;2022-12-07T13:13:29;6.60;99.90
3156;DHT22;1588;50.892;7.082;2022-12-07T13:18:37;6.50;99.90
3156;DHT22;1588;50.892;7.082;2022-12-07T13:23:54;6.40;99.90
3156;DHT22;1588;50.892;7.082;2022-12-07T13:29:07;6.40;99.90
3156;DHT22;1588;50.892;7.082;2022-12-07T13:34:31;6.40;99.90
3156;DHT22;1588;50.892;7.082;2022-12-07T13:39:34;6.50;99.90
3156;DHT22;1588;50.892;7.082;2022-12-07T13:44:43;6.40;99.90
3156;DHT22;1588;50.892;7.082;2022-12-07T13:49:57;6.40;99.90
3156;DHT22;1588;50.892;7.082;2022-12-07T14:06:21;6.40;99.90
3156;DHT22;1588;50.892;7.082;2022-12-07T14:11:28;6.40;99.90
3156;DHT22;1588;50.892;7.082;2022-12-07T14:16:33;6.30;99.90
3156;DHT22;1588;50.892;7.082;2022-12-07T14:21:38;6.30;99.90
3156;DHT22;1588;50.892;7.082;2022-12-07T14:26:43;6.20;99.90
3156;DHT22;1588;50.892;7.082;2022-12-07T14:31:46;6.20;99.90
3156;DHT22;1588;50.892;7.082;2022-12-07T14:36:51;6.20;99.90
3156;DHT22;1588;50.892;7.082;2022-12-07T14:41:53;6.10;99.90
3156;DHT22;1588;50.892;7.082;2022-12-07T14:47:11;6.20;99.90
3156;DHT22;1588;50.892;7.082;2022-12-07T14:52:36;6.10;99.90
3156;DHT22;1588;50.892;7.082;2022-12-07T14:57:57;6.00;99.90
3156;DHT22;1588;50.892;7.082;2022-12-07T15:03:17;6.00;99.90
3156;DHT22;1588;50.892;7.082;2022-12-07T15:08:23;6.00;99.90
3156;DHT22;1588;50.892;7.082;2022-12-07T15:31:38;5.90;99.90
3156;DHT22;1588;50.892;7.082;2022-12-07T15:37:20;5.90;99.90
3156;DHT22;1588;50.892;7.082;2022-12-07T15:48:58;5.80;99.90
3156;DHT22;1588;50.892;7.082;2022-12-07T15:54:20;5.70;99.90
3156;DHT22;1588;50.892;7.082;2022-12-07T16:47:30;4.80;99.90
3156;DHT22;1588;50.892;7.082;2022-12-07T16:53:22;4.80;99.90
3156;DHT22;1588;50.892;7.082;2022-12-07T16:58:57;4.70;99.90
3156;DHT22;1588;50.892;7.082;2022-12-07T17:50:51;4.80;99.90
3156;DHT22;1588;50.892;7.082;2022-12-07T18:13:19;4.80;99.90
3156;DHT22;1588;50.892;7.082;2022-12-07T18:18:40;4.70;99.90
3156;DHT22;1588;50.892;7.082;2022-12-07T18:24:04;4.90;99.90
3156;DHT22;1588;50.892;7.082;2022-12-07T18:29:12;4.80;99.90
3156;DHT22;1588;50.892;7.082;2022-12-07T18:34:17;4.80;99.90
3156;DHT22;1588;50.892;7.082;2022-12-07T18:39:23;4.90;99.90
3156;DHT22;1588;50.892;7.082;2022-12-07T18:44:27;4.80;99.90
3156;DHT22;1588;50.892;7.082;2022-12-07T18:49:29;4.90;99.90
3156;DHT22;1588;50.892;7.082;2022-12-07T18:54:35;4.90;99.90
3156;DHT22;1588;50.892;7.082;2022-12-07T18:59:39;4.90;99.90
3156;DHT22;1588;50.892;7.082;2022-12-07T19:04:51;4.90;99.90
3156;DHT22;1588;50.892;7.082;2022-12-07T19:09:54;5.00;99.90
3156;DHT22;1588;50.892;7.082;2022-12-07T19:15:24;5.00;99.90
3156;DHT22;1588;50.892;7.082;2022-12-07T20:43:36;4.80;99.90
3156;DHT22;1588;50.892;7.082;2022-12-07T20:48:51;4.90;99.90
3156;DHT22;1588;50.892;7.082;2022-12-07T20:54:27;4.80;99.90
3156;DHT22;1588;50.892;7.082;2022-12-07T20:59:37;4.80;99.90
3156;DHT22;1588;50.892;7.082;2022-12-07T21:04:55;4.80;99.90
3156;DHT22;1588;50.892;7.082;2022-12-07T21:10:11;4.80;99.90
3156;DHT22;1588;50.892;7.082;2022-12-07T21:15:40;4.80;99.90
3156;DHT22;1588;50.892;7.082;2022-12-07T21:20:57;4.70;99.90
3156;DHT22;1588;50.892;7.082;2022-12-07T21:26:31;4.80;99.90
3156;DHT22;1588;50.892;7.082;2022-12-07T21:31:49;4.80;99.90
3156;DHT22;1588;50.892;7.082;2022-12-07T21:37:13;4.80;99.90
3156;DHT22;1588;50.892;7.082;2022-12-07T21:53:58;4.70;99.90
3156;DHT22;1588;50.892;7.082;2022-12-07T21:59:08;4.70;99.90
3156;DHT22;1588;50.892;7.082;2022-12-07T22:46:28;4.60;99.90
3156;DHT22;1588;50.892;7.082;2022-12-07T22:51:38;4.60;99.90
3156;DHT22;1588;50.892;7.082;2022-12-07T22:56:54;4.60;99.90
3156;DHT22;1588;50.892;7.082;2022-12-07T23:01:58;4.60;99.90
3156;DHT22;1588;50.892;7.082;2022-12-07T23:07:07;4.60;99.90
3156;DHT22;1588;50.892;7.082;2022-12-07T23:12:11;4.50;99.90
3156;DHT22;1588;50.892;7.082;2022-12-07T23:17:36;4.50;99.90
3156;DHT22;1588;50.892;7.082;2022-12-07T23:22:40;4.50;99.90
3156;DHT22;1588;50.892;7.082;2022-12-07T23:27:46;4.50;99.90
3156;DHT22;1588;50.892;7.082;2022-12-07T23:32:56;4.50;99.90
3156;DHT22;1588;50.892;7.082;2022-12-07T23:38:11;4.50;99.90
3156;DHT22;1588;50.892;7.082;2022-12-07T23:43:15;4.50;99.90
3156;DHT22;1588;50.892;7.082;2022-12-07T23:55:02;4.50;99.90
